createdAt,value
2022-08-27T00:00:50.708Z,6.18
2022-08-27T00:03:18.213Z,7.53
2022-08-27T00:05:45.016Z,9.30
2022-08-27T00:08:13.149Z,6.50
2022-08-27T00:10:41.077Z,8.02
2022-08-27T00:13:08.314Z,6.70
2022-08-27T00:15:35.832Z,7.20
2022-08-27T00:18:02.371Z,6.87
2022-08-27T00:20:28.985Z,8.40
2022-08-27T00:22:55.953Z,9.68
2022-08-27T00:25:23.424Z,8.27
2022-08-27T00:27:50.509Z,7.25
2022-08-27T00:30:20.034Z,7.00
2022-08-27T00:32:47.012Z,7.78
2022-08-27T00:35:15.979Z,7.82
2022-08-27T00:37:43.770Z,8.35
2022-08-27T00:40:14.564Z,8.30
2022-08-27T00:42:42.584Z,7.88
2022-08-27T00:45:10.199Z,6.30
2022-08-27T00:47:43.454Z,7.53
2022-08-27T00:50:20.780Z,6.90
2022-08-27T00:52:54.485Z,6.85
2022-08-27T00:55:25.925Z,6.85
2022-08-27T00:58:29.798Z,7.30
2022-08-27T01:00:57.838Z,6.72
2022-08-27T01:03:26.504Z,6.75
2022-08-27T01:05:56.687Z,6.75
2022-08-27T01:08:26.344Z,6.97
2022-08-27T01:10:55.019Z,6.00
2022-08-27T01:13:54.478Z,5.40
2022-08-27T01:16:17.268Z,6.75
2022-08-27T01:18:44.664Z,5.95
2022-08-27T01:21:11.468Z,6.15
2022-08-27T01:23:44.565Z,7.50
2022-08-27T01:26:14.558Z,7.55
2022-08-27T01:28:42.316Z,6.68
2022-08-27T01:31:11.685Z,6.38
2022-08-27T01:33:39.054Z,6.70
2022-08-27T01:36:06.828Z,7.22
2022-08-27T01:38:33.703Z,7.32
2022-08-27T01:41:01.860Z,7.18
2022-08-27T01:43:31.267Z,6.00
2022-08-27T01:45:58.211Z,6.95
2022-08-27T01:48:24.844Z,7.95
2022-08-27T01:50:51.814Z,6.82
2022-08-27T01:53:22.306Z,6.82
2022-08-27T01:55:50.428Z,6.10
2022-08-27T01:58:18.632Z,5.85
2022-08-27T02:00:48.677Z,6.70
2022-08-27T02:03:20.935Z,5.78
2022-08-27T02:05:48.469Z,6.22
2022-08-27T02:08:17.871Z,7.17
2022-08-27T02:10:46.340Z,6.30
2022-08-27T02:15:41.545Z,4.22
2022-08-27T02:18:09.755Z,4.65
2022-08-27T02:20:37.141Z,5.00
2022-08-27T02:23:04.820Z,5.13
2022-08-27T02:25:31.688Z,4.47
2022-08-27T02:28:02.434Z,4.90
2022-08-27T02:30:32.001Z,3.97
2022-08-27T02:33:00.950Z,5.20
2022-08-27T02:35:28.762Z,4.20
2022-08-27T02:37:55.605Z,4.50
2022-08-27T02:40:23.924Z,4.95
2022-08-27T02:42:51.146Z,4.60
2022-08-27T02:45:18.261Z,6.00
2022-08-27T02:47:45.009Z,4.90
2022-08-27T02:50:13.502Z,4.80
2022-08-27T02:52:40.563Z,4.97
2022-08-27T02:55:07.508Z,5.00
2022-08-27T02:57:36.390Z,5.05
2022-08-27T03:00:07.040Z,5.00
2022-08-27T03:02:33.764Z,4.80
2022-08-27T03:05:00.498Z,4.95
2022-08-27T03:07:27.223Z,5.32
2022-08-27T03:09:53.820Z,4.82
2022-08-27T03:12:20.437Z,4.95
2022-08-27T03:14:49.673Z,5.15
2022-08-27T03:17:34.850Z,5.13
2022-08-27T03:20:02.252Z,5.22
2022-08-27T03:22:29.213Z,4.80
2022-08-27T03:24:56.382Z,4.70
2022-08-27T03:27:25.767Z,4.40
2022-08-27T03:29:52.368Z,4.82
2022-08-27T03:32:18.937Z,4.75
2022-08-27T03:34:45.573Z,5.78
2022-08-27T03:37:12.135Z,4.90
2022-08-27T03:39:38.701Z,5.13
2022-08-27T03:42:05.676Z,4.80
2022-08-27T03:44:32.982Z,5.30
2022-08-27T03:47:00.885Z,5.07
2022-08-27T03:49:27.956Z,4.90
2022-08-27T03:51:54.619Z,4.50
2022-08-27T03:54:21.395Z,4.75
2022-08-27T03:56:48.245Z,3.78
2022-08-27T03:59:15.783Z,4.55
2022-08-27T04:01:43.257Z,4.60
2022-08-27T04:04:10.330Z,4.37
2022-08-27T04:06:37.083Z,4.38
2022-08-27T04:09:04.606Z,4.80
2022-08-27T04:11:34.461Z,4.63
2022-08-27T04:14:04.474Z,5.00
2022-08-27T04:16:48.173Z,4.65
2022-08-27T04:19:17.384Z,4.88
2022-08-27T04:21:44.012Z,5.60
2022-08-27T04:24:11.941Z,4.47
2022-08-27T04:26:42.558Z,4.40
2022-08-27T04:29:09.160Z,4.78
2022-08-27T04:31:35.741Z,5.28
2022-08-27T04:34:02.573Z,5.07
2022-08-27T04:36:29.171Z,4.63
2022-08-27T04:38:55.728Z,4.45
2022-08-27T04:41:23.220Z,4.90
2022-08-27T04:43:53.438Z,4.70
2022-08-27T04:46:26.038Z,4.50
2022-08-27T04:48:53.376Z,4.43
2022-08-27T04:51:20.914Z,5.18
2022-08-27T04:53:49.862Z,4.63
2022-08-27T04:56:19.971Z,4.05
2022-08-27T04:58:46.554Z,4.70
2022-08-27T05:01:24.174Z,4.85
2022-08-27T05:03:51.598Z,4.60
2022-08-27T05:06:19.021Z,4.65
2022-08-27T05:08:46.085Z,5.20
2022-08-27T05:11:15.576Z,4.13
2022-08-27T05:13:43.447Z,4.95
2022-08-27T05:16:18.630Z,4.70
2022-08-27T05:18:48.081Z,4.53
2022-08-27T05:21:24.380Z,5.57
2022-08-27T05:23:52.426Z,4.25
2022-08-27T05:26:19.373Z,4.57
2022-08-27T05:28:46.292Z,5.07
2022-08-27T05:31:15.044Z,4.78
2022-08-27T05:33:43.274Z,3.97
2022-08-27T05:36:20.578Z,4.40
2022-08-27T05:38:51.557Z,4.60
2022-08-27T05:41:25.489Z,4.55
2022-08-27T05:44:01.412Z,4.10
2022-08-27T05:46:29.391Z,4.68
2022-08-27T05:49:02.042Z,5.00
2022-08-27T05:51:33.397Z,4.90
2022-08-27T05:54:08.452Z,4.53
2022-08-27T05:56:37.537Z,4.55
2022-08-27T05:59:23.285Z,4.70
2022-08-27T06:01:52.545Z,4.75
2022-08-27T06:04:20.621Z,4.53
2022-08-27T06:09:19.070Z,5.18
2022-08-27T06:11:46.468Z,5.13
2022-08-27T06:14:13.177Z,5.20
2022-08-27T06:16:40.616Z,5.07
2022-08-27T06:19:08.974Z,4.15
2022-08-27T06:21:36.980Z,5.32
2022-08-27T06:24:03.791Z,4.60
2022-08-27T06:26:30.492Z,5.50
2022-08-27T06:29:01.614Z,4.60
2022-08-27T06:31:28.275Z,4.95
2022-08-27T06:34:03.108Z,4.70
2022-08-27T06:36:36.550Z,5.70
2022-08-27T06:39:03.995Z,6.45
2022-08-27T06:41:31.725Z,7.95
2022-08-27T06:46:27.942Z,8.47
2022-08-27T06:48:56.995Z,8.40
2022-08-27T06:51:27.288Z,7.78
2022-08-27T06:53:56.682Z,6.80
2022-08-27T06:56:23.436Z,6.70
2022-08-27T06:58:55.496Z,5.93
2022-08-27T07:01:28.184Z,5.78
2022-08-27T07:03:59.547Z,5.80
2022-08-27T07:06:29.095Z,6.60
2022-08-27T07:08:57.042Z,6.50
2022-08-27T07:11:24.377Z,7.25
2022-08-27T07:13:51.454Z,6.25
2022-08-27T07:16:23.168Z,6.43
2022-08-27T07:18:55.709Z,6.75
2022-08-27T07:21:23.338Z,6.20
2022-08-27T07:23:52.564Z,6.90
2022-08-27T07:26:21.922Z,7.13
2022-08-27T07:28:50.345Z,5.28
2022-08-27T07:31:19.598Z,5.40
2022-08-27T07:33:52.393Z,6.20
2022-08-27T07:36:21.336Z,4.97
2022-08-27T07:39:01.013Z,4.63
2022-08-27T07:41:31.163Z,4.10
2022-08-27T07:44:20.585Z,5.25
2022-08-27T07:46:49.344Z,4.53
2022-08-27T07:49:20.262Z,4.80
2022-08-27T07:51:47.163Z,4.45
2022-08-27T07:54:14.992Z,5.00
2022-08-27T07:56:41.755Z,5.32
2022-08-27T07:59:09.005Z,5.60
2022-08-27T08:01:36.867Z,4.63
2022-08-27T08:04:03.846Z,4.75
2022-08-27T08:06:30.642Z,5.32
2022-08-27T08:08:59.977Z,4.85
2022-08-27T08:11:26.764Z,4.25
2022-08-27T08:13:53.341Z,5.90
2022-08-27T08:16:20.900Z,5.00
2022-08-27T08:18:47.536Z,5.22
2022-08-27T08:21:15.028Z,6.03
2022-08-27T08:23:42.988Z,5.47
2022-08-27T08:26:11.205Z,5.00
2022-08-27T08:28:38.557Z,5.45
2022-08-27T08:31:06.108Z,4.85
2022-08-27T08:33:33.854Z,5.15
2022-08-27T08:36:09.863Z,5.25
2022-08-27T08:38:37.828Z,5.68
2022-08-27T08:41:06.500Z,5.45
2022-08-27T08:43:35.813Z,5.63
2022-08-27T08:46:18.676Z,5.72
2022-08-27T08:48:51.252Z,5.50
2022-08-27T08:51:29.862Z,5.65
2022-08-27T08:54:03.543Z,5.82
2022-08-27T08:56:59.727Z,5.85
2022-08-27T08:59:31.690Z,5.53
2022-08-27T09:01:58.742Z,4.35
2022-08-27T09:04:29.401Z,5.13
2022-08-27T09:07:08.543Z,4.82
2022-08-27T09:09:37.551Z,4.80
2022-08-27T09:12:15.731Z,5.53
2022-08-27T09:15:05.054Z,4.68
2022-08-27T09:17:31.797Z,5.10
2022-08-27T09:19:58.439Z,4.65
2022-08-27T09:22:38.384Z,4.68
2022-08-27T09:25:20.900Z,4.03
2022-08-27T09:27:49.536Z,4.00
2022-08-27T09:30:32.255Z,3.60
2022-08-27T09:33:04.529Z,3.90
2022-08-27T09:35:46.477Z,3.35
2022-08-27T09:38:28.409Z,3.20
2022-08-27T09:40:59.454Z,3.45
2022-08-27T09:43:28.440Z,3.03
2022-08-27T09:45:58.409Z,3.65
2022-08-27T09:48:34.065Z,3.67
2022-08-27T09:51:12.846Z,3.20
2022-08-27T09:53:50.479Z,3.63
2022-08-27T09:56:28.368Z,4.13
2022-08-27T09:59:08.245Z,4.13
2022-08-27T10:01:48.940Z,3.50
2022-08-27T10:04:23.699Z,3.80
2022-08-27T10:06:51.889Z,3.92
2022-08-27T10:09:26.744Z,4.45
2022-08-27T10:12:17.628Z,3.70
2022-08-27T10:14:51.285Z,3.60
2022-08-27T10:17:29.577Z,3.53
2022-08-27T10:20:04.092Z,3.28
2022-08-27T10:23:12.665Z,3.88
2022-08-27T10:26:01.087Z,3.80
2022-08-27T10:28:39.752Z,3.80
2022-08-27T10:31:16.324Z,3.83
2022-08-27T10:33:55.379Z,3.85
2022-08-27T10:36:48.978Z,4.25
2022-08-27T10:39:33.832Z,4.55
2022-08-27T10:42:18.665Z,4.00
2022-08-27T10:45:07.605Z,4.60
2022-08-27T10:47:58.292Z,3.65
2022-08-27T10:50:45.311Z,3.20
2022-08-27T10:53:27.168Z,3.33
2022-08-27T10:56:14.012Z,3.03
2022-08-27T10:59:01.412Z,2.75
2022-08-27T11:01:33.928Z,2.93
2022-08-27T11:04:18.545Z,2.80
2022-08-27T11:06:57.890Z,1.98
2022-08-27T11:09:57.271Z,2.40
2022-08-27T11:12:33.219Z,2.08
2022-08-27T11:15:15.884Z,2.53
2022-08-27T11:17:51.527Z,2.67
2022-08-27T11:20:44.163Z,2.08
2022-08-27T11:23:16.757Z,2.22
2022-08-27T11:26:03.922Z,1.80
2022-08-27T11:28:42.003Z,1.50
2022-08-27T11:31:23.983Z,2.50
2022-08-27T11:34:12.270Z,2.15
2022-08-27T11:37:02.678Z,2.63
2022-08-27T11:39:52.041Z,2.33
2022-08-27T11:42:42.026Z,1.77
2022-08-27T11:45:28.578Z,2.00
2022-08-27T11:48:01.169Z,2.13
2022-08-27T11:50:30.893Z,1.73
2022-08-27T11:53:08.471Z,1.88
2022-08-27T11:55:39.294Z,2.47
2022-08-27T11:58:17.982Z,2.95
2022-08-27T12:00:46.198Z,2.63
2022-08-27T12:03:18.818Z,2.53
2022-08-27T12:05:54.143Z,2.60
2022-08-27T12:08:24.252Z,3.15
2022-08-27T12:11:19.121Z,2.90
2022-08-27T12:14:00.920Z,3.05
2022-08-27T12:16:36.557Z,2.78
2022-08-27T12:19:15.250Z,3.53
2022-08-27T12:22:00.107Z,2.78
2022-08-27T12:24:48.723Z,3.17
2022-08-27T12:27:24.622Z,3.10
2022-08-27T12:30:26.948Z,3.15
2022-08-27T12:32:54.421Z,3.30
2022-08-27T12:35:23.425Z,3.30
2022-08-27T12:38:14.717Z,3.42
2022-08-27T12:41:09.245Z,3.20
2022-08-27T12:43:43.905Z,3.10
2022-08-27T12:46:19.290Z,3.00
2022-08-27T12:48:57.009Z,3.30
2022-08-27T12:51:41.886Z,4.20
2022-08-27T12:54:08.466Z,2.47
2022-08-27T12:56:34.973Z,3.22
2022-08-27T12:59:17.029Z,3.38
2022-08-27T13:02:01.966Z,3.60
2022-08-27T13:04:33.742Z,3.90
2022-08-27T13:07:00.344Z,2.85
2022-08-27T13:09:38.501Z,3.58
2022-08-27T13:12:17.764Z,3.13
2022-08-27T13:14:52.195Z,3.50
2022-08-27T13:17:24.023Z,3.33
2022-08-27T13:20:00.724Z,2.33
2022-08-27T13:22:31.816Z,2.67
2022-08-27T13:25:02.926Z,3.45
2022-08-27T13:27:35.962Z,2.55
2022-08-27T13:30:11.874Z,2.35
2022-08-27T13:32:50.595Z,3.50
2022-08-27T13:35:20.337Z,3.10
2022-08-27T13:37:53.492Z,3.05
2022-08-27T13:40:32.463Z,3.13
2022-08-27T13:43:03.713Z,2.53
2022-08-27T13:45:31.157Z,2.58
2022-08-27T13:47:59.673Z,2.25
2022-08-27T13:50:31.806Z,2.80
2022-08-27T13:53:26.477Z,3.28
2022-08-27T13:55:54.883Z,2.58
2022-08-27T14:01:07.073Z,2.63
2022-08-27T14:03:36.786Z,2.40
2022-08-27T14:06:03.680Z,2.95
2022-08-27T14:08:34.486Z,2.30
2022-08-27T14:11:08.023Z,2.92
2022-08-27T14:13:41.445Z,2.78
2022-08-27T14:16:24.098Z,2.38
2022-08-27T14:19:02.508Z,2.50
2022-08-27T14:21:29.792Z,2.42
2022-08-27T14:23:56.736Z,2.42
2022-08-27T14:26:23.581Z,2.65
2022-08-27T14:28:50.953Z,2.47
2022-08-27T14:31:18.318Z,2.22
2022-08-27T14:33:46.611Z,2.45
2022-08-27T14:36:13.868Z,2.60
2022-08-27T14:38:45.568Z,1.92
2022-08-27T14:41:12.306Z,3.10
2022-08-27T14:43:40.457Z,2.53
2022-08-27T14:46:11.477Z,2.33
2022-08-27T14:48:43.330Z,2.63
2022-08-27T14:51:24.588Z,2.40
2022-08-27T14:53:51.670Z,2.13
2022-08-27T14:56:19.625Z,2.38
2022-08-27T14:58:46.742Z,2.17
2022-08-27T15:01:14.627Z,2.20
2022-08-27T15:03:49.801Z,2.05
2022-08-27T15:06:18.255Z,2.35
2022-08-27T15:08:45.605Z,2.70
2022-08-27T15:11:23.387Z,1.90
2022-08-27T15:13:51.561Z,2.30
2022-08-27T15:16:30.078Z,2.50
2022-08-27T15:19:00.671Z,1.98
2022-08-27T15:21:30.435Z,2.00
2022-08-27T15:24:00.723Z,3.05
2022-08-27T15:26:27.376Z,3.15
2022-08-27T15:28:55.133Z,3.58
2022-08-27T15:31:21.923Z,4.40
2022-08-27T15:33:48.541Z,4.13
2022-08-27T15:36:15.208Z,3.80
2022-08-27T15:38:41.887Z,3.88
2022-08-27T15:41:10.329Z,3.72
2022-08-27T15:43:38.054Z,3.95
2022-08-27T15:46:05.420Z,3.90
2022-08-27T15:48:32.279Z,3.78
2022-08-27T15:51:07.531Z,3.28
2022-08-27T15:53:34.572Z,3.58
2022-08-27T15:56:03.916Z,3.60
2022-08-27T15:58:31.134Z,3.53
2022-08-27T16:01:09.190Z,2.97
2022-08-27T16:03:36.139Z,3.30
2022-08-27T16:06:03.861Z,3.58
2022-08-27T16:08:36.725Z,3.00
2022-08-27T16:11:08.366Z,3.13
2022-08-27T16:13:34.980Z,2.90
2022-08-27T16:16:02.434Z,2.88
2022-08-27T16:18:31.669Z,2.30
2022-08-27T16:21:00.148Z,3.22
2022-08-27T16:23:27.851Z,2.67
2022-08-27T16:25:55.958Z,2.85
2022-08-27T16:28:23.876Z,2.80
2022-08-27T16:30:52.331Z,3.15
2022-08-27T16:33:19.245Z,2.88
2022-08-27T16:35:46.403Z,2.50
2022-08-27T16:38:13.131Z,2.92
2022-08-27T16:40:48.220Z,2.60
2022-08-27T16:43:20.413Z,2.65
2022-08-27T16:45:49.034Z,2.80
2022-08-27T16:48:34.941Z,2.78
2022-08-27T16:51:03.210Z,3.17
2022-08-27T16:56:01.760Z,2.92
2022-08-27T16:58:30.215Z,2.90
2022-08-27T17:01:02.701Z,2.88
2022-08-27T17:03:30.586Z,2.65
2022-08-27T17:05:57.769Z,4.30
2022-08-27T17:08:27.321Z,3.17
2022-08-27T17:10:55.452Z,3.35
2022-08-27T17:18:42.191Z,3.63
2022-08-27T17:21:08.744Z,3.08
2022-08-27T17:23:39.398Z,4.10
2022-08-27T17:26:09.208Z,4.22
2022-08-27T17:28:39.267Z,3.53
2022-08-27T17:31:07.548Z,4.13
2022-08-27T17:36:10.378Z,3.35
2022-08-27T17:38:38.866Z,3.20
2022-08-27T17:41:16.233Z,3.83
2022-08-27T17:43:42.908Z,3.83
2022-08-27T17:46:09.745Z,3.90
2022-08-27T17:48:36.362Z,3.90
2022-08-27T17:51:04.038Z,3.75
2022-08-27T17:53:30.622Z,4.20
2022-08-27T17:55:57.157Z,3.80
2022-08-27T17:58:23.684Z,4.38
2022-08-27T18:00:51.262Z,3.97
2022-08-27T18:03:20.044Z,3.50
2022-08-27T18:05:48.027Z,3.35
2022-08-27T18:08:15.276Z,2.97
2022-08-27T18:10:43.483Z,4.38
2022-08-27T18:13:13.723Z,3.83
2022-08-27T18:15:42.138Z,3.55
2022-08-27T18:20:37.480Z,4.00
2022-08-27T18:23:09.551Z,7.45
2022-08-27T18:25:38.578Z,5.40
2022-08-27T18:28:11.300Z,5.25
2022-08-27T18:30:43.360Z,5.65
2022-08-27T18:33:10.846Z,4.28
2022-08-27T18:35:37.974Z,5.45
2022-08-27T18:38:06.176Z,5.25
2022-08-27T18:40:38.667Z,3.90
2022-08-27T18:43:05.764Z,4.57
2022-08-27T18:45:34.594Z,4.63
2022-08-27T18:48:02.666Z,4.38
2022-08-27T18:50:29.247Z,5.00
2022-08-27T18:52:56.893Z,3.58
2022-08-27T18:55:27.982Z,3.73
2022-08-27T18:57:54.571Z,4.05
2022-08-27T19:00:21.533Z,4.13
2022-08-27T19:02:52.673Z,3.72
2022-08-27T19:05:24.242Z,3.72
2022-08-27T19:07:50.827Z,3.58
2022-08-27T19:10:18.276Z,4.03
2022-08-27T19:12:44.896Z,3.97
2022-08-27T19:15:12.224Z,4.57
2022-08-27T19:17:41.608Z,4.50
2022-08-27T19:20:08.394Z,4.50
2022-08-27T19:22:35.017Z,3.55
2022-08-27T19:25:02.150Z,5.35
2022-08-27T19:27:30.313Z,4.40
2022-08-27T19:29:57.062Z,2.88
2022-08-27T19:32:23.810Z,3.70
2022-08-27T19:34:50.374Z,3.65
2022-08-27T19:37:21.138Z,3.10
2022-08-27T19:39:47.703Z,3.08
2022-08-27T19:42:14.502Z,3.13
2022-08-27T19:44:41.258Z,3.30
2022-08-27T19:47:10.053Z,4.50
2022-08-27T19:49:37.103Z,3.60
2022-08-27T19:52:08.103Z,3.92
2022-08-27T19:54:43.128Z,3.35
2022-08-27T19:57:18.671Z,3.55
2022-08-27T19:59:45.407Z,3.22
2022-08-27T20:02:12.550Z,3.00
2022-08-27T20:04:56.050Z,2.90
2022-08-27T20:07:28.194Z,2.88
2022-08-27T20:09:54.753Z,2.92
2022-08-27T20:12:21.771Z,2.85
2022-08-27T20:14:48.339Z,2.85
2022-08-27T20:17:18.266Z,3.13
2022-08-27T20:19:45.373Z,3.08
2022-08-27T20:22:13.155Z,2.45
2022-08-27T20:24:39.753Z,2.65
2022-08-27T20:27:06.355Z,2.92
2022-08-27T20:29:33.533Z,2.40
2022-08-27T20:32:01.230Z,2.45
2022-08-27T20:34:29.561Z,2.60
2022-08-27T20:36:56.222Z,2.75
2022-08-27T20:39:22.889Z,3.75
2022-08-27T20:41:50.132Z,3.58
2022-08-27T20:44:17.028Z,3.78
2022-08-27T20:46:43.791Z,3.30
2022-08-27T20:49:15.642Z,4.00
2022-08-27T20:51:51.330Z,3.10
2022-08-27T20:54:28.759Z,2.47
2022-08-27T20:56:55.295Z,2.85
2022-08-27T20:59:40.737Z,3.22
2022-08-27T21:02:12.310Z,3.13
2022-08-27T21:04:42.312Z,2.58
2022-08-27T21:07:09.057Z,2.58
2022-08-27T21:09:35.684Z,2.70
2022-08-27T21:12:11.477Z,3.60
2022-08-27T21:14:38.181Z,3.13
2022-08-27T21:17:05.916Z,3.28
2022-08-27T21:19:35.163Z,2.80
2022-08-27T21:22:06.054Z,3.10
2022-08-27T21:24:33.855Z,3.78
2022-08-27T21:27:00.424Z,3.25
2022-08-27T21:29:27.052Z,3.90
2022-08-27T21:31:53.942Z,3.22
2022-08-27T21:34:20.681Z,3.58
2022-08-27T21:36:47.250Z,3.65
2022-08-27T21:39:13.836Z,3.60
2022-08-27T21:41:40.786Z,3.42
2022-08-27T21:44:07.367Z,4.05
2022-08-27T21:46:34.044Z,4.28
2022-08-27T21:49:00.649Z,3.67
2022-08-27T21:51:27.558Z,4.65
2022-08-27T21:53:54.175Z,4.68
2022-08-27T21:56:20.790Z,3.90
2022-08-27T21:58:47.402Z,3.25
2022-08-27T22:01:14.939Z,3.72
2022-08-27T22:03:45.278Z,4.28
2022-08-27T22:06:14.924Z,3.90
2022-08-27T22:08:42.480Z,4.00
2022-08-27T22:11:09.517Z,3.58
2022-08-27T22:13:36.404Z,2.97
2022-08-27T22:16:03.765Z,3.55
2022-08-27T22:18:30.906Z,3.13
2022-08-27T22:20:58.864Z,3.55
2022-08-27T22:23:25.962Z,3.55
2022-08-27T22:25:52.569Z,3.33
2022-08-27T22:28:19.414Z,3.83
2022-08-27T22:30:46.008Z,3.78
2022-08-27T22:33:13.412Z,4.25
2022-08-27T22:35:40.216Z,3.35
2022-08-27T22:38:07.239Z,4.15
2022-08-27T22:40:35.458Z,3.67
2022-08-27T22:43:02.576Z,4.03
2022-08-27T22:45:29.298Z,4.10
2022-08-27T22:47:55.862Z,4.10
2022-08-27T22:50:23.064Z,3.65
2022-08-27T22:52:49.909Z,4.50
2022-08-27T22:55:19.761Z,3.50
2022-08-27T22:57:51.461Z,3.63
2022-08-27T23:00:23.468Z,3.97
2022-08-27T23:02:50.073Z,4.70
2022-08-27T23:05:17.041Z,3.80
2022-08-27T23:07:44.815Z,4.38
2022-08-27T23:10:13.722Z,3.70
2022-08-27T23:12:40.332Z,3.92
2022-08-27T23:15:12.497Z,4.05
2022-08-27T23:17:39.035Z,4.35
2022-08-27T23:20:08.203Z,4.18
2022-08-27T23:22:35.629Z,4.25
2022-08-27T23:25:37.559Z,3.50
2022-08-27T23:28:10.221Z,3.70
2022-08-27T23:30:38.968Z,3.65
2022-08-27T23:33:05.594Z,4.07
2022-08-27T23:35:32.443Z,3.70
2022-08-27T23:37:59.177Z,4.60
2022-08-27T23:40:26.024Z,3.45
2022-08-27T23:42:53.103Z,3.55
2022-08-27T23:45:23.807Z,3.25
2022-08-27T23:47:50.543Z,3.80
2022-08-27T23:50:17.192Z,3.15
2022-08-27T23:52:43.949Z,3.53
2022-08-27T23:55:11.792Z,3.72
2022-08-27T23:57:38.479Z,4.00
